sensor_id;sensor_type;location;lat;lon;timestamp;pressure;altitude;pressure_sealevel;temperature;humidity
59419;BME280;45224;50.904;6.038;2023-02-20T00:00:38;100894.47;;;5.78;99.00
59419;BME280;45224;50.904;6.038;2023-02-20T00:02:08;100873.88;;;5.77;98.79
59419;BME280;45224;50.904;6.038;2023-02-20T00:03:39;100885.69;;;5.72;99.36
59419;BME280;45224;50.904;6.038;2023-02-20T00:05:11;100885.25;;;5.83;99.00
59419;BME280;45224;50.904;6.038;2023-02-20T00:06:42;100880.63;;;5.75;99.25
59419;BME280;45224;50.904;6.038;2023-02-20T00:08:13;100873.88;;;5.77;99.22
59419;BME280;45224;50.904;6.038;2023-02-20T00:09:43;100870.28;;;5.72;99.12
59419;BME280;45224;50.904;6.038;2023-02-20T00:11:14;100863.16;;;5.64;99.76
59419;BME280;45224;50.904;6.038;2023-02-20T00:12:44;100858.13;;;5.67;99.53
59419;BME280;45224;50.904;6.038;2023-02-20T00:14:15;100867.44;;;5.64;99.57
59419;BME280;45224;50.904;6.038;2023-02-20T00:15:45;100858.03;;;5.64;99.59
59419;BME280;45224;50.904;6.038;2023-02-20T00:17:16;100863.66;;;5.54;99.80
59419;BME280;45224;50.904;6.038;2023-02-20T00:18:46;100863.59;;;5.53;100.00
59419;BME280;45224;50.904;6.038;2023-02-20T00:20:20;100869.56;;;5.53;100.00
59419;BME280;45224;50.904;6.038;2023-02-20T00:21:51;100875.94;;;5.63;99.70
59419;BME280;45224;50.904;6.038;2023-02-20T00:23:22;100870.00;;;5.64;99.51
59419;BME280;45224;50.904;6.038;2023-02-20T00:24:52;100863.03;;;5.61;99.21
59419;BME280;45224;50.904;6.038;2023-02-20T00:26:23;100856.06;;;5.57;99.47
59419;BME280;45224;50.904;6.038;2023-02-20T00:27:54;100851.78;;;5.58;99.42
59419;BME280;45224;50.904;6.038;2023-02-20T00:29:25;100849.06;;;5.53;99.46
59419;BME280;45224;50.904;6.038;2023-02-20T00:30:56;100847.16;;;5.47;99.76
59419;BME280;45224;50.904;6.038;2023-02-20T00:32:26;100847.34;;;5.54;99.68
59419;BME280;45224;50.904;6.038;2023-02-20T00:33:57;100836.97;;;5.51;99.42
59419;BME280;45224;50.904;6.038;2023-02-20T00:35:27;100841.72;;;5.62;99.21
59419;BME280;45224;50.904;6.038;2023-02-20T00:36:58;100838.31;;;5.63;99.13
59419;BME280;45224;50.904;6.038;2023-02-20T00:38:28;100843.50;;;5.65;98.99
59419;BME280;45224;50.904;6.038;2023-02-20T00:39:59;100845.69;;;5.54;99.27
59419;BME280;45224;50.904;6.038;2023-02-20T00:41:32;100852.78;;;5.61;99.58
59419;BME280;45224;50.904;6.038;2023-02-20T00:43:02;100839.94;;;5.61;99.22
59419;BME280;45224;50.904;6.038;2023-02-20T00:44:33;100842.56;;;5.63;99.33
59419;BME280;45224;50.904;6.038;2023-02-20T00:46:03;100843.44;;;5.63;99.34
59419;BME280;45224;50.904;6.038;2023-02-20T00:47:34;100839.25;;;5.65;99.15
59419;BME280;45224;50.904;6.038;2023-02-20T00:49:06;100844.34;;;5.64;99.32
59419;BME280;45224;50.904;6.038;2023-02-20T00:50:49;100837.50;;;5.64;99.25
59419;BME280;45224;50.904;6.038;2023-02-20T00:52:19;100829.75;;;5.63;99.43
59419;BME280;45224;50.904;6.038;2023-02-20T00:53:51;100823.75;;;5.62;99.36
59419;BME280;45224;50.904;6.038;2023-02-20T00:55:22;100834.00;;;5.62;99.46
59419;BME280;45224;50.904;6.038;2023-02-20T00:56:52;100828.03;;;5.63;99.30
59419;BME280;45224;50.904;6.038;2023-02-20T00:58:23;100811.72;;;5.61;99.44
59419;BME280;45224;50.904;6.038;2023-02-20T00:59:53;100799.28;;;5.48;100.00
59419;BME280;45224;50.904;6.038;2023-02-20T01:01:24;100798.63;;;5.54;100.00
59419;BME280;45224;50.904;6.038;2023-02-20T01:02:55;100804.75;;;5.57;100.00
59419;BME280;45224;50.904;6.038;2023-02-20T01:04:26;100802.38;;;5.63;99.82
59419;BME280;45224;50.904;6.038;2023-02-20T01:05:57;100798.78;;;5.58;100.00
59419;BME280;45224;50.904;6.038;2023-02-20T01:07:28;100800.50;;;5.58;100.00
59419;BME280;45224;50.904;6.038;2023-02-20T01:08:58;100803.69;;;5.52;100.00
59419;BME280;45224;50.904;6.038;2023-02-20T01:10:28;100808.00;;;5.53;100.00
59419;BME280;45224;50.904;6.038;2023-02-20T01:11:59;100809.88;;;5.57;100.00
59419;BME280;45224;50.904;6.038;2023-02-20T01:13:30;100803.50;;;5.46;100.00
59419;BME280;45224;50.904;6.038;2023-02-20T01:15:01;100802.78;;;5.50;100.00
59419;BME280;45224;50.904;6.038;2023-02-20T01:16:32;100800.31;;;5.53;100.00
59419;BME280;45224;50.904;6.038;2023-02-20T01:18:03;100796.00;;;5.52;100.00
59419;BME280;45224;50.904;6.038;2023-02-20T01:19:35;100801.03;;;5.49;100.00
59419;BME280;45224;50.904;6.038;2023-02-20T01:21:05;100802.88;;;5.53;100.00
59419;BME280;45224;50.904;6.038;2023-02-20T01:22:36;100795.25;;;5.55;100.00
59419;BME280;45224;50.904;6.038;2023-02-20T01:24:06;100790.28;;;5.59;100.00
59419;BME280;45224;50.904;6.038;2023-02-20T01:25:37;100791.09;;;5.58;100.00
59419;BME280;45224;50.904;6.038;2023-02-20T01:27:08;100794.50;;;5.57;100.00
59419;BME280;45224;50.904;6.038;2023-02-20T01:28:43;100794.38;;;5.54;100.00
59419;BME280;45224;50.904;6.038;2023-02-20T01:30:14;100777.94;;;5.49;100.00
59419;BME280;45224;50.904;6.038;2023-02-20T01:31:47;100781.78;;;5.60;100.00
59419;BME280;45224;50.904;6.038;2023-02-20T01:33:19;100789.06;;;5.49;100.00
59419;BME280;45224;50.904;6.038;2023-02-20T01:34:49;100784.81;;;5.50;100.00
59419;BME280;45224;50.904;6.038;2023-02-20T01:36:20;100790.88;;;5.52;100.00
59419;BME280;45224;50.904;6.038;2023-02-20T01:37:51;100787.84;;;5.62;100.00
59419;BME280;45224;50.904;6.038;2023-02-20T01:39:24;100785.84;;;5.55;100.00
59419;BME280;45224;50.904;6.038;2023-02-20T01:40:55;100784.22;;;5.57;100.00
59419;BME280;45224;50.904;6.038;2023-02-20T01:42:28;100792.97;;;5.62;100.00
59419;BME280;45224;50.904;6.038;2023-02-20T01:43:59;100788.88;;;5.67;100.00
59419;BME280;45224;50.904;6.038;2023-02-20T01:47:08;100785.22;;;5.61;100.00
59419;BME280;45224;50.904;6.038;2023-02-20T01:48:39;100785.97;;;5.58;100.00
59419;BME280;45224;50.904;6.038;2023-02-20T01:50:10;100787.72;;;5.59;100.00
59419;BME280;45224;50.904;6.038;2023-02-20T01:51:46;100786.84;;;5.59;100.00
59419;BME280;45224;50.904;6.038;2023-02-20T01:53:21;100775.16;;;5.67;100.00
59419;BME280;45224;50.904;6.038;2023-02-20T01:55:09;100769.94;;;5.64;100.00
59419;BME280;45224;50.904;6.038;2023-02-20T01:56:40;100776.03;;;5.67;100.00
59419;BME280;45224;50.904;6.038;2023-02-20T01:58:14;100776.91;;;5.68;100.00
59419;BME280;45224;50.904;6.038;2023-02-20T01:59:47;100776.09;;;5.69;100.00
59419;BME280;45224;50.904;6.038;2023-02-20T02:01:19;100768.41;;;5.69;100.00
59419;BME280;45224;50.904;6.038;2023-02-20T02:02:57;100775.94;;;5.64;100.00
59419;BME280;45224;50.904;6.038;2023-02-20T02:04:29;100781.16;;;5.67;100.00
59419;BME280;45224;50.904;6.038;2023-02-20T02:06:02;100770.78;;;5.64;100.00
59419;BME280;45224;50.904;6.038;2023-02-20T02:07:35;100767.38;;;5.64;100.00
59419;BME280;45224;50.904;6.038;2023-02-20T02:09:14;100758.34;;;5.51;100.00
59419;BME280;45224;50.904;6.038;2023-02-20T02:10:55;100773.13;;;5.58;100.00
59419;BME280;45224;50.904;6.038;2023-02-20T02:12:29;100779.41;;;5.66;100.00
59419;BME280;45224;50.904;6.038;2023-02-20T02:14:00;100776.84;;;5.66;100.00
59419;BME280;45224;50.904;6.038;2023-02-20T02:15:31;100782.69;;;5.62;100.00
59419;BME280;45224;50.904;6.038;2023-02-20T02:27:41;100753.41;;;5.56;100.00
59419;BME280;45224;50.904;6.038;2023-02-20T02:31:54;100754.75;;;5.46;100.00
59419;BME280;45224;50.904;6.038;2023-02-20T02:34:03;100751.56;;;5.53;100.00
59419;BME280;45224;50.904;6.038;2023-02-20T02:37:33;100751.47;;;5.50;100.00
59419;BME280;45224;50.904;6.038;2023-02-20T02:47:02;100730.72;;;5.44;100.00
59419;BME280;45224;50.904;6.038;2023-02-20T02:48:40;100729.00;;;5.43;100.00
59419;BME280;45224;50.904;6.038;2023-02-20T02:50:26;100727.13;;;5.39;100.00
59419;BME280;45224;50.904;6.038;2023-02-20T02:52:00;100733.03;;;5.36;100.00
59419;BME280;45224;50.904;6.038;2023-02-20T02:53:31;100726.31;;;5.40;100.00
59419;BME280;45224;50.904;6.038;2023-02-20T02:55:03;100723.63;;;5.37;100.00
59419;BME280;45224;50.904;6.038;2023-02-20T02:56:38;100710.47;;;5.27;100.00
59419;BME280;45224;50.904;6.038;2023-02-20T02:58:10;100698.56;;;5.29;100.00
59419;BME280;45224;50.904;6.038;2023-02-20T02:59:42;100698.50;;;5.26;100.00
59419;BME280;45224;50.904;6.038;2023-02-20T03:01:16;100691.59;;;5.25;100.00
59419;BME280;45224;50.904;6.038;2023-02-20T03:03:17;100672.69;;;5.22;100.00
59419;BME280;45224;50.904;6.038;2023-02-20T03:04:51;100658.16;;;5.22;100.00
59419;BME280;45224;50.904;6.038;2023-02-20T03:06:27;100665.69;;;5.18;100.00
59419;BME280;45224;50.904;6.038;2023-02-20T03:08:03;100663.19;;;5.19;100.00
59419;BME280;45224;50.904;6.038;2023-02-20T03:09:56;100666.34;;;5.12;100.00
59419;BME280;45224;50.904;6.038;2023-02-20T03:11:31;100671.69;;;5.18;100.00
59419;BME280;45224;50.904;6.038;2023-02-20T03:13:04;100669.91;;;5.16;100.00
59419;BME280;45224;50.904;6.038;2023-02-20T03:14:41;100660.56;;;5.18;100.00
59419;BME280;45224;50.904;6.038;2023-02-20T03:16:46;100665.06;;;5.23;100.00
59419;BME280;45224;50.904;6.038;2023-02-20T03:18:23;100669.72;;;5.11;100.00
59419;BME280;45224;50.904;6.038;2023-02-20T03:20:02;100679.06;;;5.09;100.00
59419;BME280;45224;50.904;6.038;2023-02-20T03:21:36;100671.47;;;5.12;100.00
59419;BME280;45224;50.904;6.038;2023-02-20T03:23:10;100673.16;;;5.11;100.00
59419;BME280;45224;50.904;6.038;2023-02-20T03:24:45;100673.22;;;5.13;100.00
59419;BME280;45224;50.904;6.038;2023-02-20T03:26:34;100679.00;;;5.07;100.00
59419;BME280;45224;50.904;6.038;2023-02-20T03:28:10;100664.53;;;5.09;100.00
59419;BME280;45224;50.904;6.038;2023-02-20T03:29:43;100669.00;;;5.15;100.00
59419;BME280;45224;50.904;6.038;2023-02-20T03:33:52;100658.06;;;5.19;100.00
59419;BME280;45224;50.904;6.038;2023-02-20T03:35:22;100648.50;;;5.15;100.00
59419;BME280;45224;50.904;6.038;2023-02-20T03:37:19;100656.09;;;5.12;100.00
59419;BME280;45224;50.904;6.038;2023-02-20T03:39:14;100665.47;;;5.11;100.00
59419;BME280;45224;50.904;6.038;2023-02-20T03:41:06;100663.19;;;5.19;100.00
59419;BME280;45224;50.904;6.038;2023-02-20T03:43:00;100652.00;;;5.17;100.00
59419;BME280;45224;50.904;6.038;2023-02-20T03:44:52;100639.53;;;5.04;100.00
59419;BME280;45224;50.904;6.038;2023-02-20T03:46:23;100656.19;;;5.15;100.00
59419;BME280;45224;50.904;6.038;2023-02-20T03:47:58;100645.94;;;5.15;100.00
59419;BME280;45224;50.904;6.038;2023-02-20T03:49:39;100656.19;;;5.15;100.00
59419;BME280;45224;50.904;6.038;2023-02-20T03:51:14;100651.63;;;5.06;100.00
59419;BME280;45224;50.904;6.038;2023-02-20T03:53:08;100654.50;;;5.16;100.00
59419;BME280;45224;50.904;6.038;2023-02-20T03:54:39;100638.28;;;5.17;100.00
59419;BME280;45224;50.904;6.038;2023-02-20T03:56:14;100656.97;;;5.12;100.00
59419;BME280;45224;50.904;6.038;2023-02-20T03:57:49;100657.72;;;5.10;100.00
59419;BME280;45224;50.904;6.038;2023-02-20T03:59:28;100647.34;;;5.07;100.00
59419;BME280;45224;50.904;6.038;2023-02-20T04:01:02;100648.13;;;5.04;100.00
59419;BME280;45224;50.904;6.038;2023-02-20T04:02:40;100647.72;;;4.93;100.00
59419;BME280;45224;50.904;6.038;2023-02-20T04:04:17;100646.09;;;4.96;100.00
59419;BME280;45224;50.904;6.038;2023-02-20T04:05:53;100648.59;;;4.94;100.00
59419;BME280;45224;50.904;6.038;2023-02-20T04:07:40;100652.97;;;4.97;100.00
59419;BME280;45224;50.904;6.038;2023-02-20T04:09:15;100650.28;;;4.93;100.00
59419;BME280;45224;50.904;6.038;2023-02-20T04:12:29;100640.16;;;4.97;100.00
59419;BME280;45224;50.904;6.038;2023-02-20T04:14:01;100629.97;;;4.98;100.00
59419;BME280;45224;50.904;6.038;2023-02-20T04:15:33;100645.16;;;4.93;100.00
59419;BME280;45224;50.904;6.038;2023-02-20T04:17:09;100640.22;;;4.98;100.00
59419;BME280;45224;50.904;6.038;2023-02-20T04:18:41;100643.31;;;4.89;100.00
59419;BME280;45224;50.904;6.038;2023-02-20T04:20:11;100637.47;;;4.93;100.00
59419;BME280;45224;50.904;6.038;2023-02-20T04:21:52;100646.94;;;4.94;100.00
59419;BME280;45224;50.904;6.038;2023-02-20T04:23:25;100644.53;;;4.99;100.00
59419;BME280;45224;50.904;6.038;2023-02-20T04:25:00;100645.16;;;4.93;100.00
59419;BME280;45224;50.904;6.038;2023-02-20T04:26:34;100649.66;;;4.99;100.00
59419;BME280;45224;50.904;6.038;2023-02-20T04:28:05;100650.25;;;4.92;100.00
59419;BME280;45224;50.904;6.038;2023-02-20T04:29:46;100644.53;;;4.99;100.00
59419;BME280;45224;50.904;6.038;2023-02-20T04:31:18;100643.53;;;4.96;100.00
59419;BME280;45224;50.904;6.038;2023-02-20T04:32:51;100654.72;;;4.98;100.00
59419;BME280;45224;50.904;6.038;2023-02-20T04:34:22;100645.41;;;5.00;100.00
59419;BME280;45224;50.904;6.038;2023-02-20T04:35:52;100646.16;;;4.97;100.00
59419;BME280;45224;50.904;6.038;2023-02-20T04:37:24;100650.13;;;4.89;100.00
59419;BME280;45224;50.904;6.038;2023-02-20T04:38:57;100645.84;;;4.88;100.00
59419;BME280;45224;50.904;6.038;2023-02-20T04:40:31;100651.22;;;4.96;100.00
59419;BME280;45224;50.904;6.038;2023-02-20T04:42:02;100635.03;;;4.97;100.00
59419;BME280;45224;50.904;6.038;2023-02-20T04:43:33;100632.34;;;4.93;100.00
59419;BME280;45224;50.904;6.038;2023-02-20T04:45:04;100629.16;;;4.99;100.00
59419;BME280;45224;50.904;6.038;2023-02-20T04:46:35;100635.91;;;4.97;100.00
59419;BME280;45224;50.904;6.038;2023-02-20T04:48:05;100640.97;;;4.96;100.00
59419;BME280;45224;50.904;6.038;2023-02-20T04:49:36;100631.09;;;4.82;100.00
59419;BME280;45224;50.904;6.038;2023-02-20T04:51:09;100633.31;;;4.73;100.00
59419;BME280;45224;50.904;6.038;2023-02-20T04:52:40;100642.13;;;4.80;100.00
59419;BME280;45224;50.904;6.038;2023-02-20T04:54:11;100642.16;;;4.81;100.00
59419;BME280;45224;50.904;6.038;2023-02-20T04:55:41;100628.59;;;4.84;100.00
59419;BME280;45224;50.904;6.038;2023-02-20T04:57:17;100627.72;;;4.83;100.00
59419;BME280;45224;50.904;6.038;2023-02-20T04:58:48;100634.56;;;4.84;100.00
59419;BME280;45224;50.904;6.038;2023-02-20T05:00:25;100637.00;;;4.80;100.00
59419;BME280;45224;50.904;6.038;2023-02-20T05:01:55;100637.25;;;4.87;100.00
59419;BME280;45224;50.904;6.038;2023-02-20T05:03:26;100634.25;;;4.75;100.00
59419;BME280;45224;50.904;6.038;2023-02-20T05:04:57;100641.00;;;4.73;100.00
59419;BME280;45224;50.904;6.038;2023-02-20T05:06:27;100634.16;;;4.72;100.00
59419;BME280;45224;50.904;6.038;2023-02-20T05:08:04;100644.56;;;4.77;100.00
59419;BME280;45224;50.904;6.038;2023-02-20T05:09:34;100642.13;;;4.80;100.00
59419;BME280;45224;50.904;6.038;2023-02-20T05:11:05;100644.38;;;4.72;100.00
59419;BME280;45224;50.904;6.038;2023-02-20T05:12:35;100646.91;;;4.70;100.00
59419;BME280;45224;50.904;6.038;2023-02-20T05:14:06;100638.44;;;4.73;100.00
59419;BME280;45224;50.904;6.038;2023-02-20T05:15:37;100642.06;;;4.78;100.00
59419;BME280;45224;50.904;6.038;2023-02-20T05:17:07;100655.91;;;4.61;100.00
59419;BME280;45224;50.904;6.038;2023-02-20T05:18:38;100655.22;;;4.65;100.00
59419;BME280;45224;50.904;6.038;2023-02-20T05:20:09;100644.38;;;4.72;100.00
59419;BME280;45224;50.904;6.038;2023-02-20T05:21:41;100643.56;;;4.73;100.00
59419;BME280;45224;50.904;6.038;2023-02-20T05:23:31;100638.31;;;4.70;100.00
59419;BME280;45224;50.904;6.038;2023-02-20T05:25:01;100645.97;;;4.68;100.00
59419;BME280;45224;50.904;6.038;2023-02-20T05:26:32;100641.47;;;4.63;100.00
59419;BME280;45224;50.904;6.038;2023-02-20T05:28:02;100645.56;;;4.57;100.00
59419;BME280;45224;50.904;6.038;2023-02-20T05:29:33;100650.81;;;4.61;100.00
59419;BME280;45224;50.904;6.038;2023-02-20T05:31:03;100651.53;;;4.58;100.00
59419;BME280;45224;50.904;6.038;2023-02-20T05:32:34;100639.03;;;4.66;100.00
59419;BME280;45224;50.904;6.038;2023-02-20T05:34:05;100641.47;;;4.63;100.00
59419;BME280;45224;50.904;6.038;2023-02-20T05:35:36;100649.28;;;4.66;100.00
59419;BME280;45224;50.904;6.038;2023-02-20T05:37:10;100643.69;;;4.53;100.00
59419;BME280;45224;50.904;6.038;2023-02-20T05:38:41;100653.47;;;4.64;100.00
59419;BME280;45224;50.904;6.038;2023-02-20T05:40:17;100645.91;;;4.67;100.00
59419;BME280;45224;50.904;6.038;2023-02-20T05:41:47;100647.28;;;4.58;100.00
59419;BME280;45224;50.904;6.038;2023-02-20T05:43:18;100642.69;;;4.50;100.00
59419;BME280;45224;50.904;6.038;2023-02-20T05:44:49;100640.31;;;4.54;100.00
59419;BME280;45224;50.904;6.038;2023-02-20T05:46:19;100637.22;;;4.63;100.00
59419;BME280;45224;50.904;6.038;2023-02-20T05:47:50;100651.84;;;4.43;100.00
59419;BME280;45224;50.904;6.038;2023-02-20T05:49:20;100654.94;;;4.57;100.00
59419;BME280;45224;50.904;6.038;2023-02-20T05:50:51;100648.56;;;4.47;100.00
59419;BME280;45224;50.904;6.038;2023-02-20T05:52:23;100647.69;;;4.47;100.00
59419;BME280;45224;50.904;6.038;2023-02-20T05:53:54;100640.44;;;4.35;100.00
59419;BME280;45224;50.904;6.038;2023-02-20T05:55:24;100649.34;;;4.45;100.00
59419;BME280;45224;50.904;6.038;2023-02-20T05:56:55;100654.41;;;4.43;100.00
59419;BME280;45224;50.904;6.038;2023-02-20T05:58:26;100641.53;;;4.42;100.00
59419;BME280;45224;50.904;6.038;2023-02-20T05:59:56;100646.72;;;4.43;100.00
59419;BME280;45224;50.904;6.038;2023-02-20T06:01:28;100644.97;;;4.42;100.00
59419;BME280;45224;50.904;6.038;2023-02-20T06:02:59;100645.72;;;4.39;100.00
59419;BME280;45224;50.904;6.038;2023-02-20T06:04:30;100646.59;;;4.40;100.00
59419;BME280;45224;50.904;6.038;2023-02-20T06:06:00;100636.94;;;4.33;100.00
59419;BME280;45224;50.904;6.038;2023-02-20T06:07:31;100641.47;;;4.40;100.00
59419;BME280;45224;50.904;6.038;2023-02-20T06:09:03;100639.72;;;4.39;100.00
59419;BME280;45224;50.904;6.038;2023-02-20T06:10:37;100635.50;;;4.39;100.00
59419;BME280;45224;50.904;6.038;2023-02-20T06:12:07;100632.69;;;4.33;100.00
59419;BME280;45224;50.904;6.038;2023-02-20T06:13:42;100638.78;;;4.37;100.00
59419;BME280;45224;50.904;6.038;2023-02-20T06:15:13;100634.13;;;4.27;100.00
59419;BME280;45224;50.904;6.038;2023-02-20T06:16:44;100619.94;;;4.35;100.00
59419;BME280;45224;50.904;6.038;2023-02-20T06:18:15;100630.75;;;4.28;100.00
59419;BME280;45224;50.904;6.038;2023-02-20T06:19:45;100636.94;;;4.33;100.00
59419;BME280;45224;50.904;6.038;2023-02-20T06:21:16;100636.22;;;4.37;100.00
59419;BME280;45224;50.904;6.038;2023-02-20T06:22:47;100633.31;;;4.28;100.00
59419;BME280;45224;50.904;6.038;2023-02-20T06:24:19;100637.75;;;4.32;100.00
59419;BME280;45224;50.904;6.038;2023-02-20T06:25:49;100640.19;;;4.29;100.00
59419;BME280;45224;50.904;6.038;2023-02-20T06:27:20;100645.44;;;4.32;100.00
59419;BME280;45224;50.904;6.038;2023-02-20T06:28:50;100635.25;;;4.33;100.00
59419;BME280;45224;50.904;6.038;2023-02-20T06:30:23;100654.75;;;4.30;100.00
59419;BME280;45224;50.904;6.038;2023-02-20T06:31:57;100643.09;;;4.38;100.00
59419;BME280;45224;50.904;6.038;2023-02-20T06:33:29;100643.00;;;4.35;100.00
59419;BME280;45224;50.904;6.038;2023-02-20T06:34:59;100653.22;;;4.35;100.00
59419;BME280;45224;50.904;6.038;2023-02-20T06:36:34;100642.34;;;4.41;100.00
59419;BME280;45224;50.904;6.038;2023-02-20T06:38:05;100656.06;;;4.20;100.00
59419;BME280;45224;50.904;6.038;2023-02-20T06:39:35;100650.88;;;4.18;100.00
59419;BME280;45224;50.904;6.038;2023-02-20T06:41:06;100640.19;;;4.29;100.00
59419;BME280;45224;50.904;6.038;2023-02-20T06:42:37;100645.97;;;4.25;100.00
59419;BME280;45224;50.904;6.038;2023-02-20T06:44:07;100651.59;;;4.37;100.00
59419;BME280;45224;50.904;6.038;2023-02-20T06:45:38;100656.91;;;4.42;100.00
59419;BME280;45224;50.904;6.038;2023-02-20T06:47:08;100655.91;;;4.38;100.00
59419;BME280;45224;50.904;6.038;2023-02-20T06:48:47;100652.06;;;4.49;100.00
59419;BME280;45224;50.904;6.038;2023-02-20T06:50:18;100663.94;;;4.47;100.00
59419;BME280;45224;50.904;6.038;2023-02-20T06:51:52;100664.94;;;4.51;100.00
59419;BME280;45224;50.904;6.038;2023-02-20T06:53:23;100669.03;;;4.46;100.00
59419;BME280;45224;50.904;6.038;2023-02-20T06:54:54;100673.50;;;4.51;100.00
59419;BME280;45224;50.904;6.038;2023-02-20T06:56:27;100679.78;;;4.60;100.00
59419;BME280;45224;50.904;6.038;2023-02-20T06:57:58;100669.16;;;4.50;100.00
59419;BME280;45224;50.904;6.038;2023-02-20T06:59:28;100682.03;;;4.52;100.00
59419;BME280;45224;50.904;6.038;2023-02-20T07:00:59;100678.53;;;4.50;100.00
59419;BME280;45224;50.904;6.038;2023-02-20T07:02:29;100681.16;;;4.51;100.00
59419;BME280;45224;50.904;6.038;2023-02-20T07:04:00;100675.50;;;4.60;100.00
59419;BME280;45224;50.904;6.038;2023-02-20T07:05:31;100679.78;;;4.60;100.00
59419;BME280;45224;50.904;6.038;2023-02-20T07:07:01;100680.56;;;4.57;100.00
59419;BME280;45224;50.904;6.038;2023-02-20T07:08:32;100678.13;;;4.62;100.00
59419;BME280;45224;50.904;6.038;2023-02-20T07:10:03;100665.19;;;4.57;100.00
59419;BME280;45224;50.904;6.038;2023-02-20T07:11:35;100675.94;;;4.48;100.00
59419;BME280;45224;50.904;6.038;2023-02-20T07:13:05;100683.13;;;4.58;100.00
59419;BME280;45224;50.904;6.038;2023-02-20T07:14:36;100681.53;;;4.61;100.00
59419;BME280;45224;50.904;6.038;2023-02-20T07:16:07;100684.41;;;4.68;100.00
59419;BME280;45224;50.904;6.038;2023-02-20T07:17:37;100677.69;;;4.72;100.00
59419;BME280;45224;50.904;6.038;2023-02-20T07:19:08;100686.97;;;4.70;100.00
59419;BME280;45224;50.904;6.038;2023-02-20T07:20:39;100684.41;;;4.68;100.00
59419;BME280;45224;50.904;6.038;2023-02-20T07:22:09;100688.50;;;4.65;100.00
59419;BME280;45224;50.904;6.038;2023-02-20T07:23:40;100686.66;;;4.61;100.00
59419;BME280;45224;50.904;6.038;2023-02-20T07:25:10;100687.28;;;4.55;100.00
59419;BME280;45224;50.904;6.038;2023-02-20T07:26:41;100681.84;;;4.68;100.00
59419;BME280;45224;50.904;6.038;2023-02-20T07:28:12;100674.41;;;4.76;100.00
59419;BME280;45224;50.904;6.038;2023-02-20T07:29:47;100677.41;;;4.64;100.00
59419;BME280;45224;50.904;6.038;2023-02-20T07:31:18;100670.69;;;4.45;100.00
59419;BME280;45224;50.904;6.038;2023-02-20T07:32:48;100660.56;;;4.48;100.00
59419;BME280;45224;50.904;6.038;2023-02-20T07:34:19;100686.00;;;4.66;100.00
59419;BME280;45224;50.904;6.038;2023-02-20T07:35:49;100687.41;;;4.58;100.00
59419;BME280;45224;50.904;6.038;2023-02-20T07:37:20;100684.16;;;4.62;100.00
59419;BME280;45224;50.904;6.038;2023-02-20T07:38:55;100683.13;;;4.58;100.00
59419;BME280;45224;50.904;6.038;2023-02-20T07:40:26;100679.03;;;4.62;100.00
59419;BME280;45224;50.904;6.038;2023-02-20T07:41:56;100686.41;;;4.54;100.00
59419;BME280;45224;50.904;6.038;2023-02-20T07:43:47;100694.66;;;4.70;100.00
59419;BME280;45224;50.904;6.038;2023-02-20T07:45:18;100695.50;;;4.69;100.00
59419;BME280;45224;50.904;6.038;2023-02-20T07:46:48;100688.63;;;4.68;100.00
59419;BME280;45224;50.904;6.038;2023-02-20T07:48:19;100686.91;;;4.67;100.00
59419;BME280;45224;50.904;6.038;2023-02-20T07:49:50;100686.66;;;4.61;100.00
59419;BME280;45224;50.904;6.038;2023-02-20T07:51:20;100689.53;;;4.68;100.00
59419;BME280;45224;50.904;6.038;2023-02-20T07:52:50;100686.72;;;4.62;100.00
59419;BME280;45224;50.904;6.038;2023-02-20T07:54:21;100693.00;;;4.70;100.00
59419;BME280;45224;50.904;6.038;2023-02-20T07:55:51;100694.09;;;4.77;100.00
59419;BME280;45224;50.904;6.038;2023-02-20T07:57:22;100683.00;;;4.77;100.00
59419;BME280;45224;50.904;6.038;2023-02-20T07:58:53;100677.34;;;4.85;100.00
59419;BME280;45224;50.904;6.038;2023-02-20T08:00:25;100692.03;;;4.89;100.00
59419;BME280;45224;50.904;6.038;2023-02-20T08:01:56;100684.28;;;4.88;100.00
59419;BME280;45224;50.904;6.038;2023-02-20T08:03:26;100689.50;;;4.91;100.00
59419;BME280;45224;50.904;6.038;2023-02-20T08:04:57;100701.44;;;4.90;100.00
59419;BME280;45224;50.904;6.038;2023-02-20T08:06:27;100684.53;;;4.96;100.00
59419;BME280;45224;50.904;6.038;2023-02-20T08:07:58;100700.44;;;4.87;100.00
59419;BME280;45224;50.904;6.038;2023-02-20T08:09:28;100700.91;;;4.99;100.00
59419;BME280;45224;50.904;6.038;2023-02-20T08:10:59;100692.22;;;4.96;100.00
59419;BME280;45224;50.904;6.038;2023-02-20T08:12:29;100696.78;;;5.03;100.00
59419;BME280;45224;50.904;6.038;2023-02-20T08:14:00;100698.31;;;4.98;100.00
59419;BME280;45224;50.904;6.038;2023-02-20T08:15:31;100707.28;;;4.86;100.00
59419;BME280;45224;50.904;6.038;2023-02-20T08:17:01;100702.59;;;4.99;100.00
59419;BME280;45224;50.904;6.038;2023-02-20T08:18:32;100696.44;;;4.93;100.00
59419;BME280;45224;50.904;6.038;2023-02-20T08:20:03;100696.31;;;4.90;100.00
59419;BME280;45224;50.904;6.038;2023-02-20T08:21:34;100693.19;;;4.98;100.00
59419;BME280;45224;50.904;6.038;2023-02-20T08:23:05;100696.31;;;4.90;100.00
59419;BME280;45224;50.904;6.038;2023-02-20T08:24:36;100699.78;;;4.92;100.00
59419;BME280;45224;50.904;6.038;2023-02-20T08:26:06;100696.78;;;5.03;100.00
59419;BME280;45224;50.904;6.038;2023-02-20T08:27:41;100699.28;;;5.01;100.00
59419;BME280;45224;50.904;6.038;2023-02-20T08:29:13;100680.25;;;4.94;100.00
59419;BME280;45224;50.904;6.038;2023-02-20T08:30:43;100701.53;;;4.93;100.00
59419;BME280;45224;50.904;6.038;2023-02-20T08:32:14;100697.56;;;5.02;100.00
59419;BME280;45224;50.904;6.038;2023-02-20T08:33:44;100702.94;;;5.08;100.00
59419;BME280;45224;50.904;6.038;2023-02-20T08:35:15;100699.56;;;5.09;100.00